Terminal Aerodrome Forecast
Issued by NWS

Home | Current Version | Previous Version | Graphics & Text | Print | Product List | Glossary Off
Versions: 1 2 3 4 5 6 7 8 9 10 11 12 13 14

817
FTUS42 KMHX 111139
TAFPGV
TAF
KPGV 111139Z 1112/1212 VRB04KT P6SM FEW250
     FM111600 14006KT P6SM SCT250
     FM112000 15005KT P6SM SCT045
     FM120600 20007KT P6SM VCSH BKN050 WS020/18040KT
     FM120900 20009KT P6SM VCSH SCT010 BKN030
      AMD LTD TO CLD VIS AND WIND=

USA.gov is the U.S. government's official web portal to all federal, state and local government web resources and services.